Time;durP1;ratioP1;P1;durP2;ratioP2;P2;SDS_P1;SDS_P2;PMS_P1;PMS_P2;Temp;Humidity;BMP_temperature;BMP_pressure;BME280_temperature;BME280_humidity;BME280_pressure;Samples;Min_cycle;Max_cycle;Signal;HPM_P1;HPM_P2
2024/01/02 00:00:34;;;;;;;12.27;4.10;;;;;;;;;;4928693;29;20038;-76
2024/01/02 00:03:00;;;;;;;6.72;3.55;;;;;;;;;;4915695;29;20126;-76
2024/01/02 00:05:26;;;;;;;10.85;4.22;;;;;;;;;;4899731;29;20488;-75
2024/01/02 00:07:52;;;;;;;13.02;3.90;;;;;;;;;;4916861;29;20040;-76
2024/01/02 00:10:18;;;;;;;9.18;3.17;;;;;;;;;;4918592;29;20102;-77
2024/01/02 00:12:44;;;;;;;11.07;3.70;;;;;;;;;;4933322;29;20051;-75
2024/01/02 00:15:10;;;;;;;11.48;3.97;;;;;;;;;;4932846;29;20127;-75
2024/01/02 00:17:36;;;;;;;9.55;3.85;;;;;;;;;;4916324;29;20040;-75
2024/01/02 00:20:02;;;;;;;10.75;4.20;;;;;;;;;;4934570;29;20497;-75
2024/01/02 00:22:28;;;;;;;9.20;3.58;;;;;;;;;;4916631;29;20040;-75
2024/01/02 00:24:54;;;;;;;9.90;3.75;;;;;;;;;;4933848;29;20048;-76
2024/01/02 00:27:21;;;;;;;9.35;3.47;;;;;;;;;;4915715;29;20080;-77
2024/01/02 00:29:47;;;;;;;7.90;3.28;;;;;;;;;;4916546;29;20044;-78
2024/01/02 00:32:13;;;;;;;12.98;3.85;;;;;;;;;;4900565;29;20505;-77
2024/01/02 00:34:39;;;;;;;9.73;4.00;;;;;;;;;;4915592;29;20051;-75
2024/01/02 00:37:05;;;;;;;11.18;3.60;;;;;;;;;;4918691;29;20047;-76
2024/01/02 00:39:31;;;;;;;9.57;3.72;;;;;;;;;;4914583;29;20040;-75
2024/01/02 00:41:57;;;;;;;13.02;3.95;;;;;;;;;;4928553;29;20126;-76
2024/01/02 00:44:23;;;;;;;12.52;3.88;;;;;;;;;;4934086;29;20048;-75
2024/01/02 00:46:49;;;;;;;9.00;3.50;;;;;;;;;;4933867;29;20389;-76
2024/01/02 00:49:15;;;;;;;12.60;4.05;;;;;;;;;;4934256;29;20047;-76
2024/01/02 00:51:42;;;;;;;8.13;3.10;;;;;;;;;;4933704;29;20621;-76
2024/01/02 00:54:08;;;;;;;14.65;3.85;;;;;;;;;;4916256;29;20492;-76
2024/01/02 00:56:34;;;;;;;11.35;3.70;;;;;;;;;;4933823;29;20258;-78
2024/01/02 00:59:01;;;;;;;10.20;4.00;;;;;;;;;;4916784;29;20122;-78
2024/01/02 01:01:27;;;;;;;6.53;3.80;;;;;;;;;;4933892;29;20065;-79
2024/01/02 01:03:53;;;;;;;14.18;3.92;;;;;;;;;;4918688;29;20047;-76
2024/01/02 01:06:19;;;;;;;17.08;4.30;;;;;;;;;;4916598;29;20052;-76
2024/01/02 01:08:46;;;;;;;7.43;3.15;;;;;;;;;;4918290;29;20106;-76
2024/01/02 01:11:12;;;;;;;11.23;4.07;;;;;;;;;;4918135;29;20051;-77
2024/01/02 01:13:38;;;;;;;12.50;3.60;;;;;;;;;;4933430;29;20044;-77
2024/01/02 01:16:05;;;;;;;9.63;3.97;;;;;;;;;;4926296;29;20048;-77
2024/01/02 01:18:31;;;;;;;12.30;4.97;;;;;;;;;;4932000;29;20527;-77
2024/01/02 01:20:57;;;;;;;12.95;3.40;;;;;;;;;;4920387;29;20039;-77
2024/01/02 01:23:25;;;;;;;11.25;4.03;;;;;;;;;;4905777;29;20055;-77
2024/01/02 01:25:51;;;;;;;10.43;3.63;;;;;;;;;;4937762;29;20036;-77
2024/01/02 01:28:17;;;;;;;9.30;4.57;;;;;;;;;;4893182;29;20386;-77
2024/01/02 01:30:44;;;;;;;8.50;3.65;;;;;;;;;;4918333;29;20052;-77
2024/01/02 01:33:10;;;;;;;12.60;3.53;;;;;;;;;;4912787;29;20420;-77
2024/01/02 01:35:36;;;;;;;8.82;3.50;;;;;;;;;;4935995;29;20124;-77
2024/01/02 01:38:02;;;;;;;6.22;3.20;;;;;;;;;;4905804;29;20039;-77
2024/01/02 01:40:28;;;;;;;12.07;3.92;;;;;;;;;;4920978;29;20083;-77
2024/01/02 01:42:54;;;;;;;10.63;3.20;;;;;;;;;;4917606;29;20059;-77
2024/01/02 01:45:20;;;;;;;9.45;3.40;;;;;;;;;;4919941;29;20040;-77
2024/01/02 01:47:46;;;;;;;13.40;4.18;;;;;;;;;;4937062;29;20043;-77
2024/01/02 01:50:14;;;;;;;7.18;2.72;;;;;;;;;;4937096;29;20156;-77
2024/01/02 01:52:41;;;;;;;10.13;3.28;;;;;;;;;;4920936;29;20050;-77
2024/01/02 01:55:08;;;;;;;8.50;3.13;;;;;;;;;;4921046;29;20424;-77
2024/01/02 01:57:34;;;;;;;9.57;2.50;;;;;;;;;;4936732;29;20040;-77
2024/01/02 02:00:00;;;;;;;5.53;2.80;;;;;;;;;;4921031;29;20437;-77
2024/01/02 02:02:26;;;;;;;12.57;3.38;;;;;;;;;;4920676;29;20078;-77
2024/01/02 02:04:53;;;;;;;8.85;3.00;;;;;;;;;;4935152;29;20047;-77
2024/01/02 02:07:19;;;;;;;9.07;2.67;;;;;;;;;;4934083;29;20433;-77
2024/01/02 02:09:45;;;;;;;6.60;2.60;;;;;;;;;;4936454;29;20036;-76
2024/01/02 02:12:11;;;;;;;8.80;3.00;;;;;;;;;;4920457;29;20126;-76
2024/01/02 02:14:38;;;;;;;7.40;2.42;;;;;;;;;;4918898;29;20078;-77
2024/01/02 02:17:04;;;;;;;10.80;2.78;;;;;;;;;;4920210;29;20040;-77
2024/01/02 02:19:30;;;;;;;11.32;3.05;;;;;;;;;;4917418;29;20044;-77
2024/01/02 02:21:56;;;;;;;8.68;3.05;;;;;;;;;;4921940;29;20535;-77
2024/01/02 02:24:24;;;;;;;8.45;2.20;;;;;;;;;;4934969;29;20048;-77
2024/01/02 02:26:50;;;;;;;7.20;2.55;;;;;;;;;;4934501;29;20209;-77
2024/01/02 02:29:16;;;;;;;7.60;2.90;;;;;;;;;;4914554;29;20045;-77
2024/01/02 02:31:42;;;;;;;9.68;2.50;;;;;;;;;;4934974;29;20501;-77
2024/01/02 02:34:08;;;;;;;8.30;2.70;;;;;;;;;;4902865;29;20044;-76
2024/01/02 02:36:34;;;;;;;3.90;2.20;;;;;;;;;;4930853;29;20071;-77
2024/01/02 02:39:00;;;;;;;9.52;2.17;;;;;;;;;;4934379;29;20035;-77
2024/01/02 02:41:26;;;;;;;7.47;2.22;;;;;;;;;;4935688;29;20042;-77
2024/01/02 02:43:52;;;;;;;6.45;2.67;;;;;;;;;;4934178;29;20047;-77
2024/01/02 02:46:18;;;;;;;9.57;3.20;;;;;;;;;;4920196;29;20040;-77
2024/01/02 02:48:44;;;;;;;9.90;2.25;;;;;;;;;;4934578;29;20053;-76
2024/01/02 02:51:11;;;;;;;8.93;2.42;;;;;;;;;;4918647;29;20109;-74
2024/01/02 02:53:37;;;;;;;5.63;2.00;;;;;;;;;;4932489;29;20051;-76
2024/01/02 02:56:03;;;;;;;5.63;2.10;;;;;;;;;;4916861;29;20040;-77
2024/01/02 02:58:29;;;;;;;10.10;2.30;;;;;;;;;;4919009;29;20068;-77
2024/01/02 03:00:55;;;;;;;5.97;2.20;;;;;;;;;;4917537;29;20050;-77
2024/01/02 03:03:21;;;;;;;7.53;2.58;;;;;;;;;;4903997;29;20047;-77
2024/01/02 03:05:47;;;;;;;8.60;2.45;;;;;;;;;;4916688;29;20099;-76
2024/01/02 03:08:13;;;;;;;8.25;2.15;;;;;;;;;;4911073;29;20040;-77
2024/01/02 03:10:39;;;;;;;7.68;2.40;;;;;;;;;;4919806;29;20511;-77
2024/01/02 03:13:05;;;;;;;10.98;3.17;;;;;;;;;;4935013;29;20505;-77
2024/01/02 03:15:31;;;;;;;5.40;2.20;;;;;;;;;;4935104;29;20102;-77
2024/01/02 03:17:57;;;;;;;7.00;2.30;;;;;;;;;;4934820;29;20035;-77
2024/01/02 03:20:24;;;;;;;8.40;2.22;;;;;;;;;;4902544;29;20032;-77
2024/01/02 03:22:50;;;;;;;6.85;2.42;;;;;;;;;;4901658;29;20054;-77
2024/01/02 03:25:16;;;;;;;6.72;2.17;;;;;;;;;;4933604;29;20126;-77
2024/01/02 03:27:42;;;;;;;7.35;2.65;;;;;;;;;;4903518;29;20044;-77
2024/01/02 03:30:08;;;;;;;6.55;2.20;;;;;;;;;;4933529;29;20095;-76
2024/01/02 03:32:34;;;;;;;5.05;2.65;;;;;;;;;;4934832;29;20056;-77
2024/01/02 03:35:00;;;;;;;5.20;2.20;;;;;;;;;;4917774;29;20062;-77
2024/01/02 03:37:26;;;;;;;8.02;2.67;;;;;;;;;;4916059;29;20039;-77
2024/01/02 03:39:53;;;;;;;5.72;2.30;;;;;;;;;;4902827;29;20496;-77
2024/01/02 03:42:19;;;;;;;7.15;2.40;;;;;;;;;;4917071;29;20052;-76
2024/01/02 03:44:45;;;;;;;6.10;2.42;;;;;;;;;;4913266;29;20048;-76
2024/01/02 03:47:11;;;;;;;8.63;3.38;;;;;;;;;;4933463;29;20036;-76
2024/01/02 03:49:38;;;;;;;5.72;2.40;;;;;;;;;;4933008;29;20125;-76
2024/01/02 03:52:04;;;;;;;3.70;2.10;;;;;;;;;;4933292;29;20047;-76
2024/01/02 03:54:30;;;;;;;6.38;2.47;;;;;;;;;;4932836;29;20079;-76
2024/01/02 03:56:56;;;;;;;6.75;2.50;;;;;;;;;;4931629;29;20119;-76
2024/01/02 03:59:22;;;;;;;7.53;2.58;;;;;;;;;;4932736;29;20047;-76
2024/01/02 04:01:48;;;;;;;9.05;3.22;;;;;;;;;;4918951;29;20557;-76
2024/01/02 04:04:14;;;;;;;7.18;2.90;;;;;;;;;;4933124;29;20382;-76
2024/01/02 04:06:41;;;;;;;7.55;2.78;;;;;;;;;;4917380;29;20135;-76
2024/01/02 04:09:08;;;;;;;6.80;2.67;;;;;;;;;;4924841;29;20135;-76
2024/01/02 04:11:34;;;;;;;8.38;2.40;;;;;;;;;;4916780;29;20070;-76
2024/01/02 04:14:00;;;;;;;3.13;2.40;;;;;;;;;;4885300;29;20123;-76
2024/01/02 04:16:26;;;;;;;6.25;3.08;;;;;;;;;;4930745;29;20039;-76
2024/01/02 04:18:52;;;;;;;8.07;3.10;;;;;;;;;;4921492;29;20115;-76
2024/01/02 04:21:18;;;;;;;5.88;2.80;;;;;;;;;;4917570;29;20083;-76
2024/01/02 04:23:44;;;;;;;7.22;2.65;;;;;;;;;;4900940;29;20048;-75
2024/01/02 04:26:10;;;;;;;7.95;3.08;;;;;;;;;;4901437;29;20370;-75
2024/01/02 04:28:36;;;;;;;6.50;2.83;;;;;;;;;;4916521;29;20040;-75
2024/01/02 04:31:02;;;;;;;4.65;2.40;;;;;;;;;;4925733;29;20095;-75
2024/01/02 04:33:28;;;;;;;4.15;2.58;;;;;;;;;;4916841;29;20055;-75
2024/01/02 04:35:54;;;;;;;6.93;2.92;;;;;;;;;;4932403;29;20047;-76
2024/01/02 04:38:20;;;;;;;3.78;2.75;;;;;;;;;;4914877;29;20040;-75
2024/01/02 04:40:46;;;;;;;4.53;2.70;;;;;;;;;;4902958;29;20039;-76
2024/01/02 04:43:12;;;;;;;3.70;2.53;;;;;;;;;;4930775;29;20108;-75
2024/01/02 04:45:38;;;;;;;6.22;2.50;;;;;;;;;;4912897;29;20118;-76
2024/01/02 04:48:05;;;;;;;4.25;2.63;;;;;;;;;;4915264;29;20068;-75
2024/01/02 04:50:31;;;;;;;5.55;2.60;;;;;;;;;;4901397;29;20055;-76
2024/01/02 04:52:57;;;;;;;4.20;2.20;;;;;;;;;;4931076;29;20510;-76
2024/01/02 04:55:23;;;;;;;4.35;2.60;;;;;;;;;;4936405;29;20039;-76
2024/01/02 04:57:49;;;;;;;7.53;2.72;;;;;;;;;;4906075;29;20040;-76
2024/01/02 05:00:15;;;;;;;3.25;2.47;;;;;;;;;;4904291;29;20032;-75
2024/01/02 05:02:42;;;;;;;4.90;2.60;;;;;;;;;;4918456;29;20130;-76
2024/01/02 05:05:08;;;;;;;5.20;3.38;;;;;;;;;;4903624;29;20543;-75
2024/01/02 05:07:34;;;;;;;6.65;2.97;;;;;;;;;;4937923;29;20052;-76
2024/01/02 05:10:00;;;;;;;3.65;2.85;;;;;;;;;;4920782;29;20396;-75
2024/01/02 05:12:27;;;;;;;6.90;3.00;;;;;;;;;;4902751;29;20139;-75
2024/01/02 05:14:53;;;;;;;5.78;2.80;;;;;;;;;;4935959;29;20135;-74
2024/01/02 05:17:19;;;;;;;4.57;2.70;;;;;;;;;;4931802;29;20126;-75
2024/01/02 05:19:46;;;;;;;4.68;2.60;;;;;;;;;;4903279;29;20040;-75
2024/01/02 05:22:12;;;;;;;3.42;2.60;;;;;;;;;;4925178;29;20113;-75
2024/01/02 05:24:38;;;;;;;3.08;2.30;;;;;;;;;;4935907;29;20043;-74
2024/01/02 05:27:04;;;;;;;5.25;2.80;;;;;;;;;;4936948;29;20063;-74
2024/01/02 05:29:30;;;;;;;3.22;2.22;;;;;;;;;;4921842;29;20078;-74
2024/01/02 05:31:56;;;;;;;2.80;2.30;;;;;;;;;;4936731;29;20059;-74
2024/01/02 05:34:22;;;;;;;4.75;2.17;;;;;;;;;;4921067;29;20036;-74
2024/01/02 05:36:48;;;;;;;3.45;1.90;;;;;;;;;;4921313;29;20396;-74
2024/01/02 05:39:15;;;;;;;2.20;2.00;;;;;;;;;;4934723;29;20396;-74
2024/01/02 05:41:41;;;;;;;2.08;1.88;;;;;;;;;;4934034;29;20051;-74
2024/01/02 05:44:07;;;;;;;2.63;1.70;;;;;;;;;;4909440;29;20055;-75
2024/01/02 05:46:34;;;;;;;2.08;1.88;;;;;;;;;;4903393;29;20127;-73
2024/01/02 05:49:00;;;;;;;1.98;1.67;;;;;;;;;;4903380;29;20079;-73
2024/01/02 05:51:26;;;;;;;1.85;1.67;;;;;;;;;;4925313;29;20449;-73
2024/01/02 05:53:52;;;;;;;2.33;1.80;;;;;;;;;;4929734;29;20066;-73
2024/01/02 05:56:18;;;;;;;2.25;1.65;;;;;;;;;;4903398;29;20036;-73
2024/01/02 05:58:44;;;;;;;1.85;1.48;;;;;;;;;;4903592;29;20044;-73
2024/01/02 06:01:12;;;;;;;3.58;1.67;;;;;;;;;;4921832;29;20404;-73
2024/01/02 06:03:38;;;;;;;1.50;1.40;;;;;;;;;;4920913;29;20051;-73
2024/01/02 06:06:05;;;;;;;2.10;1.40;;;;;;;;;;4922546;29;20040;-72
2024/01/02 06:08:32;;;;;;;1.52;1.38;;;;;;;;;;4921434;29;20518;-73
2024/01/02 06:10:58;;;;;;;2.88;1.70;;;;;;;;;;4908391;29;20040;-73
2024/01/02 06:13:24;;;;;;;1.50;1.40;;;;;;;;;;4920768;29;20044;-73
2024/01/02 06:15:50;;;;;;;1.42;1.33;;;;;;;;;;4912880;29;20036;-73
2024/01/02 06:18:16;;;;;;;1.60;1.30;;;;;;;;;;4895354;29;20496;-73
2024/01/02 06:20:42;;;;;;;4.63;1.75;;;;;;;;;;4930751;29;20043;-73
2024/01/02 06:23:08;;;;;;;1.48;1.35;;;;;;;;;;4924116;29;20071;-73
2024/01/02 06:25:34;;;;;;;1.52;1.42;;;;;;;;;;4913008;29;20048;-76
2024/01/02 06:28:00;;;;;;;1.60;1.50;;;;;;;;;;4912267;29;20098;-76
2024/01/02 06:30:26;;;;;;;1.58;1.30;;;;;;;;;;4914696;29;20400;-76
2024/01/02 06:32:52;;;;;;;1.77;1.50;;;;;;;;;;4928730;29;20075;-76
2024/01/02 06:35:19;;;;;;;1.48;1.38;;;;;;;;;;4926115;29;20078;-76
2024/01/02 06:37:45;;;;;;;1.65;1.40;;;;;;;;;;4926976;29;20048;-77
2024/01/02 06:40:11;;;;;;;2.80;1.52;;;;;;;;;;4930785;29;20039;-72
2024/01/02 06:42:37;;;;;;;1.45;1.35;;;;;;;;;;4922017;29;20403;-72
2024/01/02 06:45:04;;;;;;;1.75;1.40;;;;;;;;;;4933352;29;20437;-72
2024/01/02 06:47:30;;;;;;;1.60;1.50;;;;;;;;;;4928246;29;20047;-72
2024/01/02 06:49:56;;;;;;;2.08;1.60;;;;;;;;;;4925808;29;20108;-72
2024/01/02 06:52:22;;;;;;;1.55;1.45;;;;;;;;;;4913887;29;20043;-72
2024/01/02 06:54:48;;;;;;;1.40;1.30;;;;;;;;;;4923863;29;20043;-72
2024/01/02 06:57:15;;;;;;;1.50;1.40;;;;;;;;;;4933767;29;20074;-71
2024/01/02 06:59:41;;;;;;;2.58;1.88;;;;;;;;;;4918318;29;20557;-72
2024/01/02 07:02:07;;;;;;;1.60;1.50;;;;;;;;;;4932866;29;20445;-71
2024/01/02 07:04:33;;;;;;;1.48;1.38;;;;;;;;;;4930734;29;20126;-72
2024/01/02 07:06:59;;;;;;;1.60;1.50;;;;;;;;;;4919991;29;20051;-72
2024/01/02 07:09:25;;;;;;;1.75;1.60;;;;;;;;;;4920117;29;20047;-71
2024/01/02 07:11:51;;;;;;;2.08;1.70;;;;;;;;;;4929609;29;20079;-71
2024/01/02 07:14:17;;;;;;;2.75;1.65;;;;;;;;;;4903941;29;20040;-72
2024/01/02 07:16:43;;;;;;;1.77;1.67;;;;;;;;;;4935443;29;20097;-72
2024/01/02 07:19:09;;;;;;;1.73;1.63;;;;;;;;;;4922788;29;20035;-72
2024/01/02 07:21:35;;;;;;;2.05;1.83;;;;;;;;;;4924454;29;20043;-72
2024/01/02 07:24:01;;;;;;;2.75;1.90;;;;;;;;;;4920470;29;20052;-73
2024/01/02 07:26:28;;;;;;;2.30;1.90;;;;;;;;;;4920767;29;20086;-73
2024/01/02 07:28:54;;;;;;;2.45;1.98;;;;;;;;;;4919378;29;20130;-73
2024/01/02 07:31:20;;;;;;;3.78;2.08;;;;;;;;;;4914381;29;20055;-73
2024/01/02 07:33:46;;;;;;;3.50;2.17;;;;;;;;;;4903209;29;20044;-73
2024/01/02 07:36:12;;;;;;;3.80;1.80;;;;;;;;;;4929503;29;20047;-76
2024/01/02 07:38:38;;;;;;;2.50;2.10;;;;;;;;;;4919244;29;20043;-76
2024/01/02 07:41:05;;;;;;;5.20;2.30;;;;;;;;;;4927340;29;20042;-76
2024/01/02 07:43:31;;;;;;;3.80;2.17;;;;;;;;;;4915291;29;20032;-76
2024/01/02 07:45:57;;;;;;;7.30;2.58;;;;;;;;;;4925585;29;20043;-76
2024/01/02 07:48:24;;;;;;;10.38;2.58;;;;;;;;;;4932442;29;20095;-76
2024/01/02 07:50:50;;;;;;;5.65;2.45;;;;;;;;;;4923493;29;20055;-75
2024/01/02 07:53:19;;;;;;;12.05;2.20;;;;;;;;;;4933228;29;20473;-72
2024/01/02 07:55:47;;;;;;;12.35;2.30;;;;;;;;;;4922723;29;20040;-72
2024/01/02 07:58:13;;;;;;;19.75;3.20;;;;;;;;;;4900461;29;20385;-72
2024/01/02 08:00:39;;;;;;;27.88;2.92;;;;;;;;;;4901195;29;20473;-72
2024/01/02 08:03:05;;;;;;;15.60;3.08;;;;;;;;;;4930794;29;20051;-72
2024/01/02 08:05:31;;;;;;;14.85;2.20;;;;;;;;;;4910974;29;20062;-72
2024/01/02 08:07:57;;;;;;;25.50;3.75;;;;;;;;;;4930153;29;20130;-72
2024/01/02 08:10:23;;;;;;;26.42;3.42;;;;;;;;;;4913221;29;20044;-72
2024/01/02 08:12:49;;;;;;;20.27;2.58;;;;;;;;;;4925194;29;20476;-72
2024/01/02 08:15:15;;;;;;;13.40;2.30;;;;;;;;;;4928285;29;20036;-73
2024/01/02 08:17:42;;;;;;;15.05;2.63;;;;;;;;;;4926508;29;20078;-72
2024/01/02 08:20:09;;;;;;;22.77;2.55;;;;;;;;;;4901329;29;20035;-73
2024/01/02 08:22:35;;;;;;;12.48;2.40;;;;;;;;;;4917914;29;20079;-73
2024/01/02 08:25:01;;;;;;;21.08;3.05;;;;;;;;;;4915457;29;20056;-73
2024/01/02 08:27:27;;;;;;;17.63;3.20;;;;;;;;;;4926585;29;20044;-72
2024/01/02 08:29:54;;;;;;;16.48;2.40;;;;;;;;;;4905817;29;20035;-72
2024/01/02 08:32:21;;;;;;;21.50;3.08;;;;;;;;;;4918175;29;20396;-72
2024/01/02 08:34:49;;;;;;;19.95;3.10;;;;;;;;;;4929393;29;20048;-72
2024/01/02 08:37:15;;;;;;;18.52;2.65;;;;;;;;;;4917551;29;20100;-72
2024/01/02 08:39:41;;;;;;;16.85;2.67;;;;;;;;;;4900558;29;20480;-73
2024/01/02 08:42:07;;;;;;;23.90;3.03;;;;;;;;;;4915447;29;20048;-72
2024/01/02 08:44:33;;;;;;;22.30;3.40;;;;;;;;;;4916191;29;20048;-72
2024/01/02 08:46:59;;;;;;;18.38;2.45;;;;;;;;;;4915222;29;20059;-72
2024/01/02 08:49:25;;;;;;;14.57;2.33;;;;;;;;;;4928666;29;20095;-72
2024/01/02 08:51:51;;;;;;;9.38;2.33;;;;;;;;;;4907716;29;20043;-72
2024/01/02 08:54:18;;;;;;;15.93;2.58;;;;;;;;;;4922767;29;20090;-72
2024/01/02 08:56:44;;;;;;;15.63;2.50;;;;;;;;;;4927187;29;20526;-72
2024/01/02 08:59:10;;;;;;;20.17;3.28;;;;;;;;;;4920865;29;20103;-72
2024/01/02 09:01:36;;;;;;;16.48;2.25;;;;;;;;;;4911023;29;20036;-72
2024/01/02 09:04:02;;;;;;;11.55;2.08;;;;;;;;;;4906375;29;20052;-72
2024/01/02 09:06:28;;;;;;;21.45;3.22;;;;;;;;;;4923776;29;20047;-72
2024/01/02 09:08:57;;;;;;;18.23;2.83;;;;;;;;;;4908060;29;20047;-71
2024/01/02 09:11:24;;;;;;;12.93;2.15;;;;;;;;;;4925766;29;20142;-72
2024/01/02 09:13:50;;;;;;;25.88;2.83;;;;;;;;;;4925563;29;20391;-72
2024/01/02 09:16:17;;;;;;;19.75;2.80;;;;;;;;;;4926341;29;20036;-72
2024/01/02 09:18:43;;;;;;;21.60;2.60;;;;;;;;;;4922954;29;20043;-77
2024/01/02 09:21:09;;;;;;;14.70;2.97;;;;;;;;;;4917809;29;20130;-76
2024/01/02 09:23:35;;;;;;;12.75;2.30;;;;;;;;;;4932031;29;20051;-75
2024/01/02 09:26:03;;;;;;;17.08;3.13;;;;;;;;;;4920189;29;20051;-76
2024/01/02 09:28:31;;;;;;;14.18;2.30;;;;;;;;;;4930379;29;20039;-75
2024/01/02 09:30:57;;;;;;;14.60;2.03;;;;;;;;;;4908341;29;20056;-77
2024/01/02 09:33:25;;;;;;;14.95;2.50;;;;;;;;;;4921613;29;20557;-75
2024/01/02 09:35:51;;;;;;;20.38;3.58;;;;;;;;;;4913066;29;20050;-76
2024/01/02 09:38:17;;;;;;;18.63;3.17;;;;;;;;;;4926522;29;20115;-71
2024/01/02 09:40:53;;;;;;;12.45;2.95;;;;;;;;;;4925888;29;20047;-72
2024/01/02 09:43:19;;;;;;;17.77;2.50;;;;;;;;;;4914628;29;20055;-71
2024/01/02 09:45:47;;;;;;;17.75;2.72;;;;;;;;;;4912448;29;20441;-71
2024/01/02 09:48:20;;;;;;;21.27;2.78;;;;;;;;;;4913241;29;20048;-71
2024/01/02 09:50:58;;;;;;;14.05;2.30;;;;;;;;;;4926312;29;20043;-71
2024/01/02 09:53:31;;;;;;;19.13;2.75;;;;;;;;;;4925157;29;20135;-72
2024/01/02 09:56:10;;;;;;;15.43;3.10;;;;;;;;;;4926453;29;20038;-71
2024/01/02 09:58:49;;;;;;;22.63;3.17;;;;;;;;;;4928369;29;20055;-71
2024/01/02 10:01:28;;;;;;;19.25;2.75;;;;;;;;;;4929909;29;20076;-71
2024/01/02 10:04:00;;;;;;;29.80;3.00;;;;;;;;;;4914929;29;20075;-74
2024/01/02 10:06:50;;;;;;;17.88;2.78;;;;;;;;;;4930395;29;20128;-71
2024/01/02 10:09:16;;;;;;;12.10;2.60;;;;;;;;;;4915059;29;20050;-74
2024/01/02 10:11:45;;;;;;;19.77;2.97;;;;;;;;;;4934214;29;20143;-74
2024/01/02 10:14:16;;;;;;;19.08;2.78;;;;;;;;;;4929902;29;20226;-74
2024/01/02 10:16:51;;;;;;;16.27;2.65;;;;;;;;;;4935703;29;20047;-74
2024/01/02 10:19:32;;;;;;;19.65;2.50;;;;;;;;;;4936833;29;20124;-73
2024/01/02 10:22:07;;;;;;;27.67;3.80;;;;;;;;;;4936126;29;20043;-73
2024/01/02 10:24:44;;;;;;;24.60;3.60;;;;;;;;;;4936769;29;20115;-77
2024/01/02 10:27:12;;;;;;;17.27;3.58;;;;;;;;;;4937799;29;20369;-74
2024/01/02 10:29:45;;;;;;;15.55;3.28;;;;;;;;;;4919511;29;20403;-74
2024/01/02 10:32:12;;;;;;;15.60;2.83;;;;;;;;;;4924039;29;20461;-74
2024/01/02 10:34:57;;;;;;;21.25;2.85;;;;;;;;;;4924201;29;20119;-74
2024/01/02 10:37:25;;;;;;;24.05;3.78;;;;;;;;;;4934225;29;20098;-71
2024/01/02 10:40:15;;;;;;;16.58;2.55;;;;;;;;;;4910011;29;20079;-74
2024/01/02 10:42:59;;;;;;;21.63;2.90;;;;;;;;;;4922794;29;20413;-72
2024/01/02 10:45:34;;;;;;;16.65;2.70;;;;;;;;;;4934425;29;20075;-72
2024/01/02 10:48:01;;;;;;;26.50;3.13;;;;;;;;;;4907074;29;20036;-73
2024/01/02 10:50:32;;;;;;;21.38;3.25;;;;;;;;;;4916935;29;20086;-73
2024/01/02 10:53:17;;;;;;;19.75;3.22;;;;;;;;;;4917928;29;20087;-72
2024/01/02 10:55:49;;;;;;;24.90;3.58;;;;;;;;;;4938830;29;20051;-73
2024/01/02 10:58:20;;;;;;;19.98;2.85;;;;;;;;;;4929687;29;20508;-72
2024/01/02 11:00:52;;;;;;;29.13;4.10;;;;;;;;;;4918644;29;20075;-73
2024/01/02 11:03:20;;;;;;;19.65;2.50;;;;;;;;;;4920033;29;20055;-72
2024/01/02 11:05:55;;;;;;;28.48;3.35;;;;;;;;;;4909021;29;20390;-72
2024/01/02 11:08:31;;;;;;;19.73;3.10;;;;;;;;;;4928758;29;20078;-73
2024/01/02 11:10:58;;;;;;;18.77;2.60;;;;;;;;;;4916745;29;20131;-73
2024/01/02 11:13:26;;;;;;;19.27;3.08;;;;;;;;;;4928676;29;20091;-73
2024/01/02 11:16:07;;;;;;;36.50;3.42;;;;;;;;;;4936129;29;20047;-73
2024/01/02 11:18:34;;;;;;;21.00;4.28;;;;;;;;;;4935625;29;20054;-73
2024/01/02 11:21:02;;;;;;;28.15;3.30;;;;;;;;;;4916352;29;20044;-73
2024/01/02 11:23:30;;;;;;;18.30;2.88;;;;;;;;;;4917829;29;20489;-73
2024/01/02 11:26:05;;;;;;;19.63;3.65;;;;;;;;;;4916398;29;20048;-73
2024/01/02 11:28:33;;;;;;;22.70;3.53;;;;;;;;;;4910253;29;20051;-72
2024/01/02 11:31:01;;;;;;;18.40;3.60;;;;;;;;;;4914868;29;20060;-73
2024/01/02 11:33:35;;;;;;;23.38;3.15;;;;;;;;;;4934642;29;20493;-73
2024/01/02 11:36:20;;;;;;;14.70;2.75;;;;;;;;;;4935196;29;20044;-73
2024/01/02 11:38:59;;;;;;;21.83;2.67;;;;;;;;;;4933029;29;20095;-76
2024/01/02 11:41:39;;;;;;;19.15;3.00;;;;;;;;;;4927155;29;20119;-76
2024/01/02 11:44:13;;;;;;;21.40;2.55;;;;;;;;;;4931414;29;20048;-77
2024/01/02 11:46:41;;;;;;;14.57;2.80;;;;;;;;;;4901490;29;20115;-76
2024/01/02 11:49:11;;;;;;;15.13;3.38;;;;;;;;;;4929894;29;20044;-76
2024/01/02 11:51:40;;;;;;;26.33;3.00;;;;;;;;;;4917560;29;20046;-76
2024/01/02 11:54:12;;;;;;;17.80;2.85;;;;;;;;;;4913219;29;20138;-76
2024/01/02 11:56:39;;;;;;;20.20;3.30;;;;;;;;;;4935123;29;20035;-76
2024/01/02 11:59:29;;;;;;;16.40;3.38;;;10.40;99.90;;;;;;4928629;29;20048;-76
2024/01/02 12:02:16;;;;;;;21.60;3.53;;;;;;;;;;4923678;29;20035;-76
2024/01/02 12:04:48;;;;;;;17.25;3.15;;;;;;;;;;4932626;29;20050;-77
2024/01/02 12:07:27;;;;;;;18.30;3.35;;;;;;;;;;4909250;29;20054;-78
2024/01/02 12:09:53;;;;;;;18.27;3.17;;;;;;;;;;4913528;29;20121;-77
2024/01/02 12:12:29;;;;;;;23.23;3.58;;;;;;;;;;4915230;29;20078;-78
2024/01/02 12:14:55;;;;;;;19.05;2.97;;;;;;;;;;4904988;29;20048;-77
2024/01/02 12:17:22;;;;;;;19.00;3.22;;;;;;;;;;4916376;29;20036;-78
2024/01/02 12:19:51;;;;;;;14.50;2.83;;;;;;;;;;4909495;29;20044;-78
2024/01/02 12:22:18;;;;;;;28.80;4.03;;;;;;;;;;4921869;29;20532;-77
2024/01/02 12:24:45;;;;;;;26.27;3.63;;;;;;;;;;4913780;29;20110;-77
2024/01/02 12:27:13;;;;;;;27.52;4.35;;;;;;;;;;4916444;29;20052;-77
2024/01/02 12:30:02;;;;;;;13.93;3.42;;;;;;;;;;4923204;29;20074;-77
2024/01/02 12:32:34;;;;;;;25.42;3.35;;;;;;;;;;4903824;29;20537;-77
2024/01/02 12:35:07;;;;;;;26.77;3.78;;;;;;;;;;4922142;29;20075;-76
2024/01/02 12:37:34;;;;;;;19.48;4.05;;;;;;;;;;4921502;29;20456;-78
2024/01/02 12:40:05;;;;;;;26.30;4.10;;;;;;;;;;4925066;29;20039;-77
2024/01/02 12:42:37;;;;;;;21.85;3.92;;;;;;;;;;4930794;29;20576;-77
2024/01/02 12:45:04;;;;;;;20.53;3.70;;;;;;;;;;4902522;29;20048;-77
2024/01/02 12:47:35;;;;;;;31.60;3.92;;;;;;;;;;4915254;29;20048;-77
2024/01/02 12:50:02;;;;;;;32.88;4.45;;;;;;;;;;4917248;29;20082;-77
2024/01/02 12:52:32;;;;;;;28.42;4.68;;;;;;;;;;4915360;29;20044;-77
2024/01/02 12:54:59;;;;;;;22.05;4.35;;;;;;;;;;4915083;29;20040;-77
2024/01/02 12:57:25;;;;;;;21.08;3.95;;;;;;;;;;4899424;29;20224;-77
2024/01/02 12:59:53;;;;;;;21.70;3.83;;;;;;;;;;4914955;29;20489;-77
2024/01/02 13:02:21;;;;;;;27.35;3.58;;;;;;;;;;4931858;29;20047;-77
2024/01/02 13:04:47;;;;;;;28.15;4.53;;;;;;;;;;4934059;29;20047;-75
2024/01/02 13:07:13;;;;;;;25.67;3.72;;;;;;;;;;4934070;29;20055;-75
2024/01/02 13:09:40;;;;;;;27.45;4.25;;;;;;;;;;4933969;29;20048;-75
2024/01/02 13:12:09;;;;;;;22.23;4.30;;;;;;;;;;4923988;29;20497;-75
2024/01/02 13:14:35;;;;;;;22.20;3.80;;;;;;;;;;4917324;29;20484;-75
2024/01/02 13:17:07;;;;;;;22.52;4.32;;;;;;;;;;4913760;29;20044;-75
2024/01/02 13:19:33;;;;;;;29.52;4.43;;;;;;;;;;4934665;29;20107;-71
2024/01/02 13:22:00;;;;;;;27.10;4.38;;;;;;;;;;4934270;29;20508;-76
2024/01/02 13:24:26;;;;;;;21.70;4.45;;;;;;;;;;4904661;29;20044;-76
2024/01/02 13:26:52;;;;;;;26.40;4.47;;;;;;;;;;4922160;29;20389;-76
2024/01/02 13:29:19;;;;;;;20.55;5.43;;;;;;;;;;4921815;29;20044;-76
2024/01/02 13:31:47;;;;;;;37.22;7.07;;;;;;;;;;4937385;29;20056;-76
2024/01/02 13:34:23;;;;;;;32.78;7.28;;;;;;;;;;4917014;29;20040;-76
2024/01/02 13:36:50;;;;;;;39.80;9.73;;;;;;;;;;4918358;29;20068;-76
2024/01/02 13:39:32;;;;;;;40.75;11.48;;;;;;;;;;4919591;29;20040;-75
2024/01/02 13:42:02;;;;;;;28.20;9.80;;;;;;;;;;4924450;29;20119;-75
2024/01/02 13:44:28;;;;;;;45.63;10.52;;;;;;;;;;4918283;29;20460;-76
2024/01/02 13:46:54;;;;;;;32.13;8.85;;;;;;;;;;4909984;29;20040;-76
2024/01/02 13:49:24;;;;;;;35.63;8.50;;;;;;;;;;4923408;29;20039;-76
2024/01/02 13:51:50;;;;;;;27.17;7.18;;;;;;;;;;4920692;29;20051;-76
2024/01/02 13:54:16;;;;;;;27.67;6.43;;;;;;;;;;4916086;29;20559;-76
2024/01/02 13:56:49;;;;;;;32.30;6.97;;;;;;;;;;4926066;29;20044;-76
2024/01/02 13:59:16;;;;;;;24.35;6.75;;;;;;;;;;4930488;29;20048;-76
2024/01/02 14:01:49;;;;;;;26.00;5.45;;;;;;;;;;4935280;29;20047;-75
2024/01/02 14:04:23;;;;;;;28.40;6.25;;;;;;;;;;4922723;29;20067;-75
2024/01/02 14:06:49;;;;;;;24.77;5.22;;;;;;;;;;4914504;29;20134;-75
2024/01/02 14:09:19;;;;;;;28.38;5.60;;;;;;;;;;4933167;29;20510;-75
2024/01/02 14:12:01;;;;;;;23.90;5.80;;;;;;;;;;4927434;29;20060;-75
2024/01/02 14:14:40;;;;;;;18.27;5.25;;;;;;;;;;4925168;29;20040;-75
2024/01/02 14:17:08;;;;;;;20.33;5.07;;;;;;;;;;4929106;29;20046;-75
2024/01/02 14:19:39;;;;;;;23.33;5.10;;;;;;;;;;4933339;29;20079;-75
2024/01/02 14:22:14;;;;;;;29.20;5.07;;;;;;;;;;4929949;29;20756;-75
2024/01/02 14:24:56;;;;;;;24.08;4.72;;;;;;;;;;4928954;29;20362;-76
2024/01/02 14:27:23;;;;;;;;;;;;;;;;;;4934960;29;20140;-75
2024/01/02 14:29:57;;;;;;;23.08;5.85;;;;;;;;;;4902417;29;20298;-75
2024/01/02 14:32:35;;;;;;;24.38;4.68;;;;;;;;;;4917241;29;20135;-77
2024/01/02 14:35:21;;;;;;;20.15;4.18;;;;;;;;;;4923391;29;20057;-77
2024/01/02 14:38:14;;;;;;;21.70;4.75;;;;;;;;;;4908823;29;20130;-77
2024/01/02 14:40:49;;;;;;;15.65;4.35;;;;;;;;;;4927658;29;20075;-76